Latest Weather Observations for Taree Airport

IDN60801

Issued at 2:53 am EDT Wednesday 19 February 2020 (issued every 10 minutes, with the page automatically refreshed every 10 minutes)

About weather observations | Map of weather stations | Latest weather observations for NSW | Other Formats
Station Details ID: 060141 Name: TAREE AIRPORT AWS Lat: -31.89 Lon: 152.51 Height: 8.0 m
Data from the previous 72 hours. | See also: Recent months at Taree Airport
Date/Time
EDT
Temp
°C
App
Temp
°C
Dew
Point
°C
Rel
Hum
%
Delta-T
°C
Wind Press
QNH
hPa
Press
MSL
hPa
Rain since
9am
mm
Dir  Spd
km/h
Gust
km/h
Spd
kts
Gust
kts
19/02:30am 24.2 28.8 23.2 94 0.7 NNE 4 6 2 3 1001.7 1001.6 0.2
19/02:00am 24.1 28.1 23.1 94 0.7 NE 7 11 4 6 1002.1 1002.0 0.2
19/01:30am 24.4 29.4 22.5 89 1.3 CALM 0 0 0 0 1002.5 1002.4 0.2
19/01:00am 24.8 29.8 22.5 87 1.5 CALM 0 0 0 0 1002.7 1002.6 0.2
19/12:30am 25.3 27.7 23.0 87 1.6 NNE 15 19 8 10 1002.6 1002.5 0.2
19/12:00am 25.1 27.4 22.8 87 1.6 ENE 15 19 8 10 1003.0 1002.9 0.2
 
Date/Time
EDT
Temp
°C
App
Temp
°C
Dew
Point
°C
Rel
Hum
%
Delta-T
°C
Wind Press
QNH
hPa
Press
MSL
hPa
Rain since
9am
mm
Dir  Spd
km/h
Gust
km/h
Spd
kts
Gust
kts
18/11:30pm 25.5 29.8 22.6 84 2.0 NNE 4 9 2 5 1003.6 1003.5 0.2
18/11:00pm 25.7 29.2 22.2 81 2.4 NE 7 13 4 7 1003.9 1003.8 0.2
18/10:30pm 26.0 29.1 22.1 79 2.6 NE 9 17 5 9 1004.2 1004.1 0.2
18/10:00pm 26.7 28.9 21.9 75 3.2 NE 13 17 7 9 1004.4 1004.3 0.2
18/09:30pm 26.7 28.3 21.5 73 3.5 NE 15 20 8 11 1004.6 1004.5 0.2
18/09:00pm 26.9 29.1 21.9 74 3.4 NE 13 17 7 9 1004.7 1004.6 0.2
18/08:30pm 27.7 29.6 22.0 71 3.8 NE 15 19 8 10 1004.8 1004.7 0.2
18/08:00pm 28.1 29.5 21.1 65 4.7 NE 15 20 8 11 1004.8 1004.7 0.2
18/07:30pm 28.4 29.9 21.2 65 4.8 NE 15 17 8 9 1004.7 1004.6 0.2
18/07:00pm 29.8 30.7 20.9 59 5.9 ENE 17 20 9 11 1004.6 1004.5 0.2
18/06:30pm 30.8 31.5 20.4 54 6.9 ENE 17 22 9 12 1004.6 1004.5 0.2
18/06:00pm 31.4 31.2 18.4 46 8.4 E 17 22 9 12 1004.9 1004.8 0.2
18/05:30pm 31.5 30.4 17.4 43 9.0 E 19 26 10 14 1005.1 1005.0 0.2
18/05:00pm 31.8 30.4 16.5 39 9.7 E 19 26 10 14 1005.4 1005.3 0.2
18/04:30pm 31.5 31.7 18.5 46 8.4 E 15 24 8 13 1005.9 1005.8 0.2
18/04:00pm 31.4 31.2 19.4 49 7.9 E 19 24 10 13 1005.9 1005.8 0.2
18/03:30pm 31.4 32.2 21.3 55 6.8 E 19 24 10 13 1006.2 1006.1 0.2
18/03:00pm 30.9 31.7 19.9 52 7.3 ESE 15 20 8 11 1006.8 1006.7 0.2
18/02:30pm 30.4 32.0 21.5 59 6.0 ESE 15 20 8 11 1007.3 1007.2 0.2
18/02:00pm 30.2 32.1 22.1 62 5.5 E 15 20 8 11 1007.8 1007.7 0.2
18/01:30pm 29.2 31.4 21.9 64 4.9 E 13 19 7 10 1008.1 1008.0 0.2
18/01:00pm 29.4 32.3 23.1 69 4.3 ESE 13 19 7 10 1008.6 1008.5 0.2
18/12:30pm 29.1 32.2 22.1 66 4.7 ESE 9 17 5 9 1009.0 1008.9 0.2
18/12:00pm 28.5 31.6 21.0 64 5.0 ENE 6 9 3 5 1009.5 1009.4 0.2
18/11:30am 27.8 31.3 21.8 70 4.0 NE 6 9 3 5 1009.9 1009.8 0.2
18/11:00am 26.4 29.1 20.3 69 4.0 N 6 9 3 5 1010.3 1010.2 0.2
18/10:30am 25.1 27.9 19.7 72 3.5 ENE 4 9 2 5 1010.5 1010.4 0.2
18/10:00am 24.7 27.5 20.4 77 2.8 N 6 9 3 5 1010.6 1010.5 0.2
18/09:30am 22.8 24.8 19.2 80 2.3 W 7 9 4 5 1010.8 1010.7 0.0
18/09:00am 21.7 23.4 19.3 86 1.5 WSW 9 13 5 7 1010.9 1010.8 12.2
18/08:30am 20.1 21.7 19.1 94 0.6 W 9 13 5 7 1010.8 1010.7 12.2
18/08:00am 19.1 20.7 19.1 100 0.0 W 9 13 5 7 1010.7 1010.6 12.2
18/07:30am 18.2 20.0 18.2 100 0.0 W 6 7 3 4 1010.6 1010.5 12.2
18/07:00am 17.6 19.1 17.6 100 0.0 NE 6 7 3 4 1010.6 1010.5 12.2
18/06:30am 17.5 20.1 17.5 100 0.0 CALM 0 11 0 6 1010.7 1010.6 12.2
18/06:00am 17.8 19.4 17.8 100 0.0 WNW 6 7 3 4 1010.5 1010.4 12.2
18/05:45am 17.9 19.5 17.9 100 0.0 WNW 6 7 3 4 1010.4 1010.3 12.2
18/05:30am 18.1 19.8 18.1 100 0.0 W 6 7 3 4 1010.5 1010.4 12.2
18/05:27am 18.0 20.1 18.0 100 0.0 W 4 7 2 4 1010.4 1010.3 12.2
18/05:00am 18.2 21.1 18.2 100 0.0 CALM 0 0 0 0 1010.2 1010.1 12.2
18/04:30am 18.3 20.1 18.3 100 0.0 WNW 6 7 3 4 1010.4 1010.3 12.2
18/04:00am 18.6 20.3 18.6 100 0.0 W 7 9 4 5 1010.4 1010.3 12.0
18/03:38am 18.6 20.3 18.6 100 0.0 WNW 7 9 4 5 1010.4 1010.3 12.0
18/03:36am 18.6 20.3 18.6 100 0.0 WNW 7 9 4 5 1010.4 1010.3 12.0
18/03:30am 18.6 20.0 18.6 100 0.0 WNW 9 11 5 6 1010.5 1010.4 12.0
18/03:00am 18.4 21.4 18.4 100 0.0 CALM 0 0 0 0 1010.6 1010.5 12.0
18/02:51am 18.6 21.7 18.6 100 0.0 CALM 0 0 0 0 1010.7 1010.6 12.0
18/02:44am 18.8 22.0 18.8 100 0.0 CALM 0 0 0 0 1010.8 1010.7 12.0
18/02:30am 18.8 20.8 18.8 100 0.0 NW 6 7 3 4 1010.8 1010.7 12.0
18/02:07am 19.2 21.2 19.2 100 0.0 W 7 9 4 5 1010.8 1010.7 12.0
18/02:00am 19.3 21.4 19.3 100 0.0 WSW 7 9 4 5 1011.0 1010.9 12.0
18/01:58am 19.3 21.4 19.3 100 0.0 WSW 7 9 4 5 1011.1 1011.0 12.0
18/01:30am 19.8 23.4 19.8 100 0.0 CALM 0 0 0 0 1011.6 1011.5 12.0
18/01:00am 19.7 23.3 19.7 100 0.0 CALM 0 0 0 0 1011.8 1011.7 12.0
18/12:39am 19.7 22.1 19.7 100 0.0 NE 6 7 3 4 1011.9 1011.8 12.0
18/12:36am 19.6 22.4 19.6 100 0.0 NE 4 7 2 4 1011.9 1011.8 12.0
18/12:30am 19.5 23.0 19.5 100 0.0 CALM 0 0 0 0 1011.9 1011.8 12.0
18/12:00am 19.8 22.3 19.8 100 0.0 NNE 6 9 3 5 1012.3 1012.2 12.0
 
Date/Time
EDT
Temp
°C
App
Temp
°C
Dew
Point
°C
Rel
Hum
%
Delta-T
°C
Wind Press
QNH
hPa
Press
MSL
hPa
Rain since
9am
mm
Dir  Spd
km/h
Gust
km/h
Spd
kts
Gust
kts
17/11:30pm 20.1 23.9 20.1 100 0.0 CALM 0 0 0 0 1012.3 1012.2 12.0
17/11:00pm 20.3 23.8 20.3 100 0.0 WNW 2 7 1 4 1012.3 1012.2 12.0
17/10:30pm 20.5 23.3 20.5 100 0.0 SSE 6 7 3 4 1012.6 1012.5 12.0
17/10:28pm 20.4 23.2 20.4 100 0.0 SSE 6 7 3 4 1012.6 1012.5 12.0
17/10:13pm 20.5 23.3 20.5 100 0.0 S 6 7 3 4 1012.6 1012.5 12.0
17/10:00pm 20.7 23.6 20.7 100 0.0 SW 6 7 3 4 1012.6 1012.5 12.0
17/09:30pm 20.9 25.1 20.9 100 0.0 CALM 0 7 0 4 1012.1 1012.0 12.0
17/09:00pm 21.0 24.4 21.0 100 0.0 N 4 7 2 4 1011.8 1011.7 12.0
17/08:30pm 21.4 25.1 21.4 100 0.0 SW 4 7 2 4 1011.7 1011.6 12.0
17/08:00pm 21.6 25.4 21.6 100 0.0 SSW 4 11 2 6 1011.1 1011.0 12.0
17/07:30pm 21.8 25.1 21.8 100 0.0 SW 7 9 4 5 1011.1 1011.0 12.0
17/07:00pm 22.2 24.9 22.2 100 0.0 SW 11 15 6 8 1010.9 1010.8 12.0
17/06:30pm 22.8 26.7 22.6 99 0.1 SSE 6 9 3 5 1011.1 1011.0 12.0
17/06:00pm 22.9 26.9 22.7 99 0.1 S 6 9 3 5 1011.0 1010.9 12.0
17/05:30pm 22.3 25.1 22.3 100 0.0 E 11 13 6 7 1011.2 1011.1 12.0
17/05:00pm 22.0 25.1 21.5 97 0.3 NE 7 11 4 6 1012.2 1012.1 11.8
17/04:30pm 21.8 24.0 21.1 96 0.5 WNW 11 13 6 7 1013.0 1012.9 11.8
17/04:00pm 22.2 25.1 21.0 93 0.8 N 7 11 4 6 1012.3 1012.2 11.6
17/03:30pm 22.4 23.5 20.5 89 1.2 NW 15 24 8 13 1012.5 1012.4 11.2
17/03:00pm 22.5 25.0 22.5 100 0.0 W 13 17 7 9 1013.0 1012.9 11.2
17/02:30pm 22.5 26.7 22.5 100 0.0 WNW 4 11 2 6 1012.7 1012.6 11.2
17/02:03pm 22.2 24.6 22.2 100 0.0 WSW 13 17 7 9 1014.0 1013.9 11.0
17/02:00pm 22.1 24.4 22.1 100 0.0 W 13 17 7 9 1014.2 1014.1 11.0
17/01:30pm 22.6 25.6 22.6 100 0.0 WNW 11 17 6 9 1014.2 1014.1 10.0
17/01:00pm 22.5 26.4 22.5 100 0.0 WNW 6 11 3 6 1014.0 1013.9 9.2
17/12:53pm 22.6 27.3 22.6 100 0.0 S 2 9 1 5 1014.4 1014.3 8.8
17/12:30pm 22.7 26.1 22.7 100 0.0 E 9 11 5 6 1014.4 1014.3 7.0
17/12:00pm 22.7 26.1 22.7 100 0.0 SW 9 11 5 6 1014.9 1014.8 4.0
17/11:30am 22.7 27.8 22.7 100 0.0 CALM 0 6 0 3 1014.6 1014.5 2.6
17/11:00am 22.7 25.7 22.7 100 0.0 WNW 11 15 6 8 1014.5 1014.4 1.8
17/10:30am 22.7 24.5 22.5 99 0.1 NE 17 22 9 12 1013.9 1013.8 1.2
17/10:12am 23.1 24.8 22.3 95 0.5 E 17 26 9 14 1013.9 1013.8 0.2
17/10:00am 23.3 25.7 22.3 94 0.7 SSE 13 17 7 9 1015.0 1014.9 0.2
17/09:30am 23.2 26.5 22.5 96 0.5 ESE 9 11 5 6 1014.4 1014.3 0.0
17/09:28am 23.2 26.5 22.5 96 0.5 E 9 9 5 5 1014.4 1014.3 0.0
17/09:27am 23.3 26.6 22.6 96 0.5 E 9 11 5 6 1014.4 1014.3 0.0
17/09:00am 22.8 25.7 22.5 98 0.2 E 11 13 6 7 1013.9 1013.8 0.4
17/08:32am 22.5 25.8 22.5 100 0.0 E 9 11 5 6 1014.0 1013.9 0.4
17/08:30am 22.5 25.7 22.3 99 0.1 E 9 11 5 6 1013.9 1013.8 0.4
17/08:00am 22.1 25.2 22.1 100 0.0 ENE 9 9 5 5 1013.7 1013.6 0.4
17/07:34am 21.7 24.2 21.7 100 0.0 E 11 15 6 8 1012.9 1012.8 0.4
17/07:30am 21.6 24.0 21.6 100 0.0 E 11 13 6 7 1013.1 1013.0 0.4
17/07:16am 21.7 24.9 21.7 100 0.0 NE 7 9 4 5 1013.7 1013.6 0.4
17/07:00am 21.7 24.6 21.7 100 0.0 WNW 9 9 5 5 1014.3 1014.2 0.4
17/06:30am 21.8 26.3 21.6 99 0.1 CALM 0 0 0 0 1014.2 1014.1 0.4
17/06:10am 21.9 26.3 21.4 97 0.3 CALM 0 0 0 0 1013.5 1013.4 0.4
17/06:00am 22.0 26.3 21.2 95 0.5 CALM 0 0 0 0 1013.5 1013.4 0.4
17/05:30am 22.0 26.1 20.8 93 0.8 CALM 0 0 0 0 1013.7 1013.6 0.0
17/05:28am 22.1 26.3 20.9 93 0.8 CALM 0 0 0 0 1013.7 1013.6 0.0
17/05:00am 22.1 25.4 20.7 92 0.9 WNW 4 7 2 4 1013.6 1013.5 0.0
17/04:30am 22.1 25.3 20.6 91 1.0 SE 4 6 2 3 1013.0 1012.9 0.0
17/04:00am 22.3 26.3 20.6 90 1.1 CALM 0 0 0 0 1013.2 1013.1 0.0
17/03:30am 22.3 26.4 20.8 91 1.0 CALM 0 0 0 0 1013.3 1013.2 0.0
17/03:00am 22.2 26.1 20.3 89 1.2 CALM 0 0 0 0 1013.4 1013.3 0.0
17/02:35am 22.2 26.2 20.5 90 1.1 CALM 0 0 0 0 1013.4 1013.3 0.0
17/02:30am 22.3 26.4 20.8 91 1.0 CALM 0 0 0 0 1013.5 1013.4 0.0
17/02:22am 22.2 26.2 20.5 90 1.1 CALM 0 0 0 0 1013.6 1013.5 0.0
17/02:00am 21.9 24.7 20.5 92 0.9 NNE 6 9 3 5 1013.9 1013.8 0.0
17/01:30am 22.2 26.0 20.1 88 1.4 CALM 0 0 0 0 1014.1 1014.0 0.0
17/01:00am 22.3 26.2 20.4 89 1.2 CALM 0 0 0 0 1014.6 1014.5 0.0
17/12:30am 22.4 24.9 19.9 86 1.6 SW 6 7 3 4 1014.5 1014.4 0.0
17/12:00am 22.5 26.2 20.0 86 1.6 CALM 0 0 0 0 1014.6 1014.5 0.0
 
Date/Time
EDT
Temp
°C
App
Temp
°C
Dew
Point
°C
Rel
Hum
%
Delta-T
°C
Wind Press
QNH
hPa
Press
MSL
hPa
Rain since
9am
mm
Dir  Spd
km/h
Gust
km/h
Spd
kts
Gust
kts
16/11:30pm 22.3 25.1 20.4 89 1.2 N 6 7 3 4 1015.0 1014.9 0.0
16/11:00pm 22.7 26.4 19.9 84 1.8 CALM 0 4 0 2 1015.0 1014.9 0.0
16/10:30pm 22.5 24.7 19.3 82 2.0 E 6 7 3 4 1015.1 1015.0 0.0
16/10:00pm 22.8 25.8 19.2 80 2.3 SE 2 7 1 4 1015.2 1015.1 0.0
16/09:30pm 22.8 24.5 19.4 81 2.2 S 9 13 5 7 1014.9 1014.8 0.0
16/09:00pm 22.9 25.1 19.5 81 2.2 S 7 9 4 5 1014.9 1014.8 0.0
16/08:30pm 23.0 24.8 19.6 81 2.2 SSE 9 13 5 7 1014.6 1014.5 0.0
16/08:00pm 23.1 24.7 19.1 78 2.5 ESE 9 11 5 6 1014.0 1013.9 0.0
16/07:30pm 23.4 24.8 18.7 75 3.0 S 9 11 5 6 1014.4 1014.3 0.0
16/07:00pm 23.6 24.9 18.5 73 3.2 S 9 11 5 6 1014.1 1014.0 0.0
16/06:30pm 23.7 25.2 18.8 74 3.1 ESE 9 11 5 6 1013.9 1013.8 0.0
16/06:00pm 24.0 25.2 18.2 70 3.6 SE 9 15 5 8 1013.6 1013.5 0.0
16/05:30pm 24.3 24.9 17.8 67 4.1 SE 11 15 6 8 1013.2 1013.1 0.0
16/05:00pm 24.7 24.6 16.9 62 4.8 SE 13 17 7 9 1013.2 1013.1 0.0
16/04:30pm 24.4 24.7 17.9 67 4.1 SE 13 15 7 8 1013.1 1013.0 0.0
16/04:00pm 24.5 24.7 17.7 66 4.2 SE 13 17 7 9 1013.4 1013.3 0.0
16/03:30pm 24.7 24.7 18.2 67 4.1 SE 15 19 8 10 1013.1 1013.0 0.0
16/03:00pm 24.9 24.9 17.1 62 4.8 SE 13 19 7 10 1013.1 1013.0 0.0
16/02:30pm 25.5 24.8 17.4 61 5.1 ESE 17 22 9 12 1013.2 1013.1 0.0
16/02:00pm 25.5 24.8 16.4 57 5.6 SE 15 22 8 12 1013.2 1013.1 0.0
16/01:30pm 25.4 25.2 16.8 59 5.3 ESE 13 17 7 9 1013.5 1013.4 0.0
16/01:00pm 25.2 25.1 16.9 60 5.1 SE 13 20 7 11 1013.7 1013.6 0.0
16/12:30pm 25.6 26.8 18.3 64 4.6 ESE 9 15 5 8 1013.6 1013.5 0.0
16/12:00pm 25.2 26.0 17.4 62 4.9 ESE 9 13 5 7 1013.8 1013.7 0.0
16/11:30am 24.4 26.9 19.9 76 2.9 ENE 6 11 3 6 1014.0 1013.9 0.0
16/11:00am 24.2 27.0 19.7 76 2.9 WNW 4 7 2 4 1014.0 1013.9 0.0
16/10:30am 23.8 27.3 20.3 81 2.3 N 2 6 1 3 1013.9 1013.8 0.0
16/10:00am 23.0 25.5 19.8 82 2.1 NW 6 7 3 4 1013.7 1013.6 0.0
16/09:30am 22.7 25.3 20.0 85 1.7 WNW 6 9 3 5 1013.5 1013.4 0.0
16/09:00am 22.2 24.5 19.9 87 1.5 W 7 9 4 5 1013.4 1013.3 3.6
16/08:30am 21.9 23.9 20.0 89 1.2 WSW 9 11 5 6 1013.1 1013.0 3.6
16/08:00am 21.7 23.9 20.5 93 0.8 WSW 9 11 5 6 1012.8 1012.7 3.6
16/07:30am 21.3 23.5 21.1 99 0.1 WSW 11 13 6 7 1012.6 1012.5 3.6
16/07:00am 21.1 24.0 21.1 100 0.0 WNW 7 9 4 5 1012.0 1011.9 3.6
16/06:30am 20.9 24.3 20.9 100 0.0 W 4 9 2 5 1011.7 1011.6 3.6
16/06:00am 20.9 25.1 20.9 100 0.0 CALM 0 0 0 0 1011.3 1011.2 3.6
16/05:30am 20.8 23.8 20.8 100 0.0 NNW 6 7 3 4 1011.3 1011.2 3.6
16/05:00am 20.7 23.6 20.7 100 0.0 NW 6 7 3 4 1011.1 1011.0 3.6
16/04:30am 20.8 24.9 20.8 100 0.0 CALM 0 0 0 0 1011.1 1011.0 3.4
16/04:00am 20.8 24.9 20.8 100 0.0 CALM 0 0 0 0 1010.7 1010.6 3.4
16/03:30am 20.8 24.9 20.8 100 0.0 CALM 0 0 0 0 1010.7 1010.6 3.4
16/03:00am 20.7 24.4 20.7 100 0.0 WSW 2 6 1 3 1010.6 1010.5 3.4

Other formats

Comma delimited format used in spreadsheet applications
http://www.bom.gov.au/fwo/IDN60801/IDN60801.95784.axf

JavaScript Object Notation format (JSON) in row-major order
http://www.bom.gov.au/fwo/IDN60801/IDN60801.95784.json

Data quality

Most of these data are generated automatically and are frequently updated. Quality checks on data are not normally performed. It is possible for incorrect values to appear. Refer to information at About Latest Weather Observations and please check the disclaimer before using these data.